Tiempo atmosférico en la estación meteorológica de Camaleño, Fuente De, Cantabria (1090 m.)



Fecha
DESCASC
Temp. máxima en grados centígrados (hora)
DESCASC
Temp. mínima en grados centígrados (hora)
DESCASC
Temp. media en grados centígrados
DESCASC
Racha de viento máxima en m/sg (hora)
DESCASC
Velocidad máxima media en intervalos de 10 minutos(hora)
DESCASC
Precipitaciones diarias en mm
DESCASC
Precipitaciones de 00:00 a 06:00 en mm
DESCASC
Precipitaciones de 06:00 a 12:00 en mm
DESCASC
Precipitaciones de 12:00 a 18:00 en mm
DESCASC
Precipitaciones de 18:00 a 24:00 en mm
DESCASC
22-04-2019 14.6 (15:10) 3.5 (05:10) 9.1 7.5 (10:50) 2.5 (21:30) 0 0 0 0 0
21-04-2019 12.9 (17:20) 6.1 (23:00) 9.5 7.5 (16:10) 2.78 (16:10) 0.2 0 0.2 0 0
20-04-2019 18.3 (16:00) 5.9 (06:50) 12.1 10.28 (17:10) 3.33 (14:50) 0 0 0 0 0
19-04-2019 16 (18:50) 6.1 (01:30) 11 9.44 (14:50) 3.06 (12:50) 13.4 13.2 0.2 0 0
18-04-2019 14.1 (00:20) 6.3 (00:00) 10.2 13.89 (00:40) 4.44 (00:40) 20.8 3.2 0.2 7.6 9.8
17-04-2019 18.5 (18:20) 9.4 (00:00) 13.9 14.17 (20:40) 4.72 (11:20) 0.4 0 0 0 0.4
16-04-2019 17.4 (16:40) 2.3 (00:00) 9.8 6.94 (22:00) 3.89 (22:00) 0 0 0 0 0
15-04-2019 17.7 (12:40) 6 (00:00) 11.9 11.11 (01:40) 4.17 (01:40) 9.6 0 0.2 8.2 1.2
14-04-2019 20.2 (16:50) 7.3 (00:00) 13.8 6.11 (14:50) 2.78 (13:20) 0.2 0 0 0 0.2
13-04-2019 19.1 (16:50) 4.1 (00:00) 11.6 5.83 (14:20) 2.5 (17:30) 0 0 0 0 0
12-04-2019 15.9 (17:10) -0.9 (-00:0) 7.5 4.44 (16:10) 1.94 (14:20) 0 0 0 0 0
11-04-2019 9.8 (14:20) 0.9 (00:00) 5.4 6.39 (18:00) 2.5 (17:50) 0.6 0.4 0.2 0 0
10-04-2019 7.4 (17:20) 0.4 (00:00) 3.9 6.39 (18:00) 2.5 (18:00) 17.2 3.4 3 10.2 0.6
09-04-2019 9.5 (14:00) 2.8 (00:00) 6.1 6.94 (15:10) 3.06 (01:30) 5.4 0 1 0 4.4
08-04-2019 12.8 (16:40) 2.7 (00:00) 7.8 9.72 (01:00) 3.33 (01:00) 5.4 5 0 0 0.4
07-04-2019 11.9 (15:40) 0 (00:00) 5.9 8.33 (09:50) 3.61 (09:50) 17.4 0.2 6.2 7.4 3.6
06-04-2019 7.4 (15:40) -0.1 (00:00) 3.7 9.17 (05:10) 2.78 (05:10) 1.8 0 0 0.4 1.4
05-04-2019 8.3 (13:00) 1.2 (00:00) 4.8 7.78 (14:30) 2.78 (14:20) 0.6 0.6 0 0 0
04-04-2019 7.6 (14:20) -3 (-00:0) 2.3 11.67 (18:20) 3.61 (18:40) -- -- -- -- 0.6
03-04-2019 4.7 (00:00) -1.9 (-00:0) 1.4 9.72 (05:30) 3.89 (05:30) -- 0 1 4 --
02-04-2019 14.3 (15:20) 1.9 (00:00) 8.1 6.11 (15:50) 2.22 (23:10) 0 0 0 0 0
01-04-2019 14.8 (15:10) 2 (00:00) 8.4 6.39 (18:30) 3.33 (18:00) 0 0 0 0 0
31-03-2019 16.4 (15:10) 4.1 (00:00) 10.2 9.17 (16:30) 2.5 (17:40) 0 0 0 0 0
30-03-2019 16.9 (12:50) 5.7 (00:00) 11.3 8.89 (16:20) 6.11 (16:10) 0 0 0 0 0
29-03-2019 18.4 (15:40) 3.2 (00:00) 10.8 5.56 (15:10) 1.94 (13:20) 0 0 0 0 0
28-03-2019 16.5 (16:10) 0.9 (00:00) 8.7 7.22 (15:00) 2.78 (15:00) 0 0 0 0 0
27-03-2019 15.3 (15:10) 0.4 (00:00) 7.9 6.67 (14:10) 2.78 (15:10) 0 0 0 0 0
26-03-2019 14.2 (15:40) -0.4 (00:00) 6.9 7.78 (16:50) 3.06 (16:50) 0 0 0 0 0
25-03-2019 11.8 (14:20) 0.9 (00:00) 6.4 7.78 (15:40) 2.5 (15:50) 0 0 0 0 0

Gráficas

Temp. máximas Temp. mínimas Temp. medias Precipitaciones Rachas de viento máximas Velocidades máximas media en intervalos de 10 minutos

Datos horarios

Fecha y hora oficial Temperatura (ºC) Velocidad del viento (km/h) Dirección del viento Racha (km/h) Dirección de racha Precipitación (mm) Presión (hPa) Tendencia (hPa) Humedad (%)
2019-04-23 23:00:00 2.1 0 Calma 5 Oeste 0 -- -- 96
2019-04-23 22:00:00 2.8 4 Sur 5 Sudoeste 0.2 -- -- 93
2019-04-23 21:00:00 4.1 4 Sudeste 17 Sudoeste 1 -- -- 87
2019-04-23 20:00:00 5.6 5 Sur 21 Sur 0 -- -- 73
2019-04-23 19:00:00 5.4 6 Nordeste 28 Noroeste 0.2 -- -- 77
2019-04-23 18:00:00 10.8 5 Sudeste 19 Sur 0 -- -- 44
2019-04-23 17:00:00 10.5 5 Sudeste 25 Oeste 0 -- -- 51
2019-04-23 16:00:00 9.9 8 Noroeste 17 Sudoeste 0 -- -- 41
2019-04-23 15:00:00 10.5 6 Nordeste 23 Este 0 -- -- 42
2019-04-23 14:00:00 9.5 9 Este 22 Este 0 -- -- 52
2019-04-23 13:00:00 8.6 6 Este 22 Sur 0 -- -- 59
2019-04-23 12:00:00 7.9 5 Sudoeste 22 Noroeste 0 -- -- 66
2019-04-23 11:00:00 7.2 9 Noroeste 28 Noroeste 0 -- -- 69
2019-04-23 10:00:00 7.2 7 Noroeste 34 Noroeste 0.2 -- -- 79
2019-04-23 09:00:00 6.3 9 Noroeste 20 Este 1 -- -- 83
2019-04-23 08:00:00 6.3 3 Sudeste 14 Norte 0.8 -- -- 91
2019-04-23 07:00:00 6.9 4 Noroeste 28 Norte 0.2 -- -- 81
2019-04-23 06:00:00 7 7 Oeste 21 Oeste 0.2 -- -- 81
2019-04-23 05:00:00 6.1 4 Norte 12 Norte 0.8 -- -- 91
2019-04-23 04:00:00 7 3 Sudoeste 17 Este 0.4 -- -- 85
2019-04-23 03:00:00 7.4 4 Noroeste 10 Noroeste 0.6 -- -- 89
2019-04-23 02:00:00 9.7 3 Sudoeste 18 Noroeste 0.2 -- -- 75
2019-04-23 01:00:00 10.1 9 Noroeste 26 Noroeste 0 -- -- 64
2019-04-23 00:00:00 10.8 6 Noroeste 16 Noroeste 0 -- -- 58
2019-04-22 23:00:00 10.9 3 Norte 17 Noroeste 0 -- -- 61
2019-04-22 22:00:00 11.3 4 Noroeste 18 Oeste 0 -- -- 59
2019-04-22 21:00:00 11 9 Noroeste 17 Noroeste 0 -- -- 64
2019-04-22 20:00:00 11.7 4 Nordeste 13 Sudoeste 0 -- -- 61
2019-04-22 19:00:00 12.1 5 Sudeste 12 Sudeste 0 -- -- 56
2019-04-22 18:00:00 12.3 4 Sudoeste 13 Noroeste 0 -- -- 54
2019-04-22 17:00:00 11.9 4 Nordeste 17 Oeste 0 -- -- 57
2019-04-22 16:00:00 12.5 5 Sudeste 24 Oeste 0 -- -- 51
2019-04-22 15:00:00 14.1 4 Norte 25 Sur 0 -- -- 55
2019-04-22 14:00:00 14.1 6 Nordeste 18 Este 0 -- -- 48
2019-04-22 13:00:00 11.7 5 Nordeste 18 Sudoeste 0 -- -- 51
2019-04-22 12:00:00 10.9 6 Nordeste 21 Oeste 0 -- -- 56
2019-04-22 11:00:00 10.1 7 Noroeste 27 Noroeste 0 -- -- 58
2019-04-22 10:00:00 9.1 5 Este 18 Noroeste 0 -- -- 61
2019-04-22 09:00:00 5.2 2 Este 7 Norte 0 -- -- 85
2019-04-22 08:00:00 4.6 3 Noroeste 16 Oeste 0 -- -- 83
2019-04-22 07:00:00 4.3 0 Calma 6 Oeste 0 -- -- 84
2019-04-22 06:00:00 3.8 2 Noroeste 5 Oeste 0 -- -- 88
2019-04-22 05:00:00 3.6 3 Sur 5 Oeste 0 -- -- 89
2019-04-22 04:00:00 3.9 2 Oeste 5 Sur 0 -- -- 87
2019-04-22 03:00:00 4.8 2 Sudoeste 4 Sudoeste 0 -- -- 84
2019-04-22 02:00:00 5.5 2 Este 5 Este 0 -- -- 85
2019-04-22 01:00:00 5.8 0 Calma 4 Sudoeste 0 -- -- 83
2019-04-22 00:00:00 6.1 0 Calma 3 Sur 0 -- -- 82
2019-04-21 23:00:00 6.1 0 Calma 4 Oeste 0 -- -- 80
2019-04-21 22:00:00 7.3 0 Calma 6 Sudoeste 0 -- -- 75
2019-04-21 21:00:00 8.2 4 Sudoeste 14 Sudeste 0 -- -- 69
2019-04-21 20:00:00 9.2 5 Sur 15 Sur 0 -- -- 69
2019-04-21 19:00:00 10.6 7 Sur 23 Sudeste 0 -- -- 60
2019-04-21 18:00:00 12.3 9 Sudoeste 24 Sur 0 -- -- 52
2019-04-21 17:00:00 12.3 6 Sudeste 27 Sur 0 -- -- 54
2019-04-21 16:00:00 12.5 6 Este 18 Sudoeste 0 -- -- 51
2019-04-21 15:00:00 11.9 7 Sur 16 Sudoeste 0 -- -- 51
2019-04-21 14:00:00 11.6 4 Sudeste 13 Sudoeste 0 -- -- 55
2019-04-21 13:00:00 11.1 4 Este 10 Sur 0 -- -- 57
2019-04-21 12:00:00 10.5 5 Sur 13 Oeste 0 -- -- 58
2019-04-21 11:00:00 9.8 2 Sudeste 9 Sudoeste 0.2 -- -- 67
2019-04-21 10:00:00 8.7 2 Norte 6 Este 0 -- -- 79
2019-04-21 09:00:00 7.8 0 Calma 6 Sur 0 -- -- 86
2019-04-21 08:00:00 7.7 3 Norte 8 Oeste 0 -- -- 83
2019-04-21 07:00:00 7.6 2 Sudoeste 5 Este 0 -- -- 80
2019-04-21 06:00:00 7.4 0 Calma 6 Sur 0 -- -- 76
2019-04-21 05:00:00 7.8 3 Sudoeste 9 Este 0 -- -- 75
2019-04-21 04:00:00 7.7 3 Oeste 18 Sudoeste 0 -- -- 74
2019-04-21 03:00:00 8.8 5 Sudoeste 13 Sur 0 -- -- 65
2019-04-21 02:00:00 8.6 4 Sur 9 Sudoeste 0 -- -- 68
2019-04-21 01:00:00 8.3 2 Oeste 5 Oeste 0 -- -- 68
2019-04-21 00:00:00 8.4 0 Calma 5 Sudoeste 0 -- -- 70
2019-04-20 23:00:00 8.7 2 Sur 10 Oeste 0 -- -- 65
2019-04-20 22:00:00 9 4 Noroeste 16 Sur 0 -- -- 58
2019-04-20 21:00:00 9.9 2 Sudoeste 13 Sudoeste 0 -- -- 53
2019-04-20 20:00:00 12 4 Sudoeste 20 Sur 0 -- -- 42
2019-04-20 19:00:00 13.6 6 Sudoeste 26 Sudoeste 0 -- -- 42
2019-04-20 18:00:00 14.9 8 Sur 37 Sudoeste 0 -- -- 43
2019-04-20 17:00:00 17.6 12 Sur 28 Sur 0 -- -- 39
2019-04-20 16:00:00 18.3 8 Sur 26 Sur 0 -- -- 41
2019-04-20 15:00:00 17.8 10 Sur 29 Sudoeste 0 -- -- 45
2019-04-20 14:00:00 17 9 Sur 26 Sur 0 -- -- 43
2019-04-20 13:00:00 16.7 8 Sur 26 Sudoeste 0 -- -- 43
2019-04-20 12:00:00 15.1 7 Sur 19 Sudeste 0 -- -- 43
2019-04-20 11:00:00 13.6 6 Sudeste 17 Sur 0 -- -- 57
2019-04-20 10:00:00 9.5 3 Norte 6 Este 0 -- -- 82
2019-04-20 09:00:00 6.5 0 Calma 4 Noroeste 0 -- -- 87
2019-04-20 08:00:00 5.9 0 Calma 4 Oeste 0 -- -- 86
2019-04-20 07:00:00 5.9 0 Calma 4 Sudoeste 0 -- -- 87
2019-04-20 06:00:00 6.2 0 Calma 5 Oeste 0 -- -- 87
2019-04-20 05:00:00 6.1 0 Calma 4 Oeste 0 -- -- 88
2019-04-20 04:00:00 6.3 2 Oeste 5 Noroeste 0 -- -- 83
2019-04-20 03:00:00 6.4 2 Oeste 5 Oeste 0 -- -- 83
2019-04-20 02:00:00 6.6 0 Calma 4 Oeste 0 -- -- 81
2019-04-20 01:00:00 7 0 Calma 5 Noroeste 0 -- -- 81
2019-04-20 00:00:00 7.3 2 Oeste 5 Oeste 0 -- -- 78
2019-04-19 23:00:00 8.2 0 Calma 6 Oeste 0 -- -- 74
2019-04-19 22:00:00 9.2 3 Sudoeste 11 Oeste 0 -- -- 70
2019-04-19 21:00:00 10.4 3 Oeste 11 Noroeste 0 -- -- 69
2019-04-19 20:00:00 12.5 3 Oeste 9 Sudoeste 0 -- -- 64
2019-04-19 19:00:00 15.3 5 Sur 15 Sur 0 -- -- 52
2019-04-19 18:00:00 15.3 7 Sur 21 Sur 0 -- -- 51
2019-04-19 17:00:00 14.8 4 Sudoeste 21 Sur 0 -- -- 56
2019-04-19 16:00:00 14.3 4 Oeste 28 Sudoeste 0 -- -- 57
2019-04-19 15:00:00 14.8 9 Oeste 34 Noroeste 0 -- -- 54
2019-04-19 14:00:00 11.9 8 Oeste 19 Este 0 -- -- 68
2019-04-19 13:00:00 11.1 7 Sur 27 Este 0 -- -- 68
2019-04-19 12:00:00 11.2 4 Sur 14 Norte 0 -- -- 74
2019-04-19 11:00:00 9.3 5 Sur 22 Sur 0 -- -- 79
2019-04-19 10:00:00 8.2 7 Sur 20 Sudoeste 0 -- -- 81
2019-04-19 09:00:00 6.9 3 Noroeste 14 Noroeste 0.2 -- -- 98
2019-04-19 08:00:00 6.6 3 Sur 12 Oeste 0 -- -- 99
2019-04-19 07:00:00 6.5 4 Nordeste 12 Sudoeste 0 -- -- 99
2019-04-19 06:00:00 6.5 3 Sudeste 8 Sudoeste 0.2 -- -- 100
2019-04-19 05:00:00 6.5 3 Oeste 9 Sudoeste 1.2 -- -- 99
2019-04-19 04:00:00 6.6 4 Sudoeste 13 Sudoeste 1.8 -- -- 99
2019-04-19 03:00:00 6.5 4 Sudoeste 10 Sudoeste 3.8 -- -- 99
2019-04-19 02:00:00 6.1 3 Sur 6 Sudoeste 2.8 -- -- 100
2019-04-19 01:00:00 6.2 0 Calma 10 Sudoeste 3.4 -- -- 99
2019-04-19 00:00:00 6.4 5 Sur 12 Noroeste 1.4 -- -- 99
2019-04-18 23:00:00 6.3 0 Calma 3 Oeste 0.8 -- -- 98
2019-04-18 22:00:00 6.4 2 Oeste 6 Sur 1.8 -- -- 98
2019-04-18 21:00:00 6.6 4 Noroeste 8 Sur 2.4 -- -- 97
2019-04-18 20:00:00 7.1 4 Sudoeste 12 Noroeste 2.6 -- -- 95
2019-04-18 19:00:00 7.7 0 Calma 2 Oeste 0.8 -- -- 92
2019-04-18 18:00:00 7.9 0 Calma 4 Este 0.2 -- -- 92
2019-04-18 17:00:00 7.3 0 Calma 9 Sudoeste 1.4 -- -- 95
2019-04-18 16:00:00 7.6 4 Oeste 9 Sudoeste 1.8 -- -- 94
2019-04-18 15:00:00 7.9 0 Calma 5 Este 4 -- -- 92
2019-04-18 14:00:00 8.9 0 Calma 9 Sudoeste 0.2 -- -- 86
2019-04-18 13:00:00 9.3 3 Sudoeste 9 Sudoeste 0 -- -- 81
2019-04-18 12:00:00 8.8 2 Sudeste 8 Sudoeste 0 -- -- 84
2019-04-18 11:00:00 8.1 3 Sudoeste 9 Sur 0 -- -- 86
2019-04-18 10:00:00 7.9 0 Calma 5 Sudeste 0 -- -- 86
2019-04-18 09:00:00 7.7 3 Sudeste 15 Noroeste 0 -- -- 87
2019-04-18 08:00:00 8.2 10 Noroeste 17 Noroeste 0 -- -- 75
2019-04-18 07:00:00 8.2 8 Noroeste 26 Noroeste 0.2 -- -- 74
2019-04-18 06:00:00 7.9 7 Sur 26 Sur 0 -- -- 76
2019-04-18 05:00:00 8 6 Oeste 19 Norte 1.2 -- -- 78
2019-04-18 04:00:00 8.5 5 Norte 16 Oeste 0.8 -- -- 86
2019-04-18 03:00:00 9.9 4 Sudeste 26 Noroeste 0.6 -- -- 81
2019-04-18 02:00:00 11.6 8 Noroeste 29 Oeste 0.6 -- -- 69
2019-04-18 01:00:00 13.7 5 Sur 50 Oeste 0 -- -- 54
2019-04-18 00:00:00 14 9 Oeste 48 Oeste 0.2 -- -- 53
2019-04-17 23:00:00 13 9 Sur 40 Noroeste 0.2 -- -- 59
2019-04-17 22:00:00 13.9 14 Noroeste 46 Noroeste 0 -- -- 58
2019-04-17 21:00:00 14.9 9 Noroeste 51 Oeste 0 -- -- 49
2019-04-17 20:00:00 16 6 Sudoeste 26 Oeste 0 -- -- 41
2019-04-17 19:00:00 17.5 6 Oeste 23 Nordeste 0 -- -- 37
2019-04-17 18:00:00 17.7 5 Noroeste 22 Norte 0 -- -- 34
2019-04-17 17:00:00 15.9 9 Noroeste 34 Noroeste 0 -- -- 37
2019-04-17 16:00:00 16.5 12 Noroeste 34 Noroeste 0 -- -- 44
2019-04-17 15:00:00 17.8 7 Nordeste 27 Nordeste 0 -- -- 49
2019-04-17 14:00:00 16.5 13 Norte 42 Noroeste 0 -- -- 46
2019-04-17 13:00:00 16.4 14 Oeste 34 Noroeste 0 -- -- 48
2019-04-17 12:00:00 15.6 8 Noroeste 34 Noroeste 0 -- -- 49
2019-04-17 11:00:00 13.9 13 Noroeste 31 Norte 0 -- -- 51
2019-04-17 10:00:00 12.1 5 Noroeste 26 Noroeste 0 -- -- 54
2019-04-17 09:00:00 9.9 3 Sudeste 11 Sudoeste 0 -- -- 66
2019-04-17 08:00:00 9.7 0 Calma 8 Oeste 0 -- -- 63
2019-04-17 07:00:00 10.4 3 Oeste 11 Noroeste 0 -- -- 57
2019-04-17 06:00:00 11.6 3 Sur 32 Norte 0 -- -- 52
2019-04-17 05:00:00 13.8 10 Noroeste 28 Noroeste 0 -- -- 42
2019-04-17 04:00:00 13.1 9 Norte 24 Noroeste 0 -- -- 43
2019-04-17 03:00:00 13.3 10 Noroeste 21 Norte 0 -- -- 43
2019-04-17 02:00:00 11.4 8 Noroeste 16 Noroeste 0 -- -- 53
2019-04-17 01:00:00 9.6 2 Sudoeste 7 Sudoeste 0 -- -- 61
2019-04-17 00:00:00 11.1 3 Oeste 10 Oeste 0 -- -- 59
2019-04-16 23:00:00 13 7 Noroeste 21 Noroeste 0 -- -- 46
2019-04-16 22:00:00 12.8 14 Noroeste 25 Norte 0 -- -- 39
2019-04-16 21:00:00 12.4 4 Noroeste 18 Oeste 0 -- -- 45
2019-04-16 20:00:00 13.4 9 Noroeste 17 Noroeste 0 -- -- 41
2019-04-16 19:00:00 14.7 7 Noroeste 21 Oeste 0 -- -- 44
2019-04-16 18:00:00 16.7 8 Noroeste 21 Oeste 0 -- -- 40
2019-04-16 17:00:00 16.7 5 Nordeste 15 Este 0 -- -- 42
2019-04-16 16:00:00 16.3 4 Este 16 Este 0 -- -- 37
2019-04-16 15:00:00 15.9 6 Este 16 Este 0 -- -- 41
2019-04-16 14:00:00 14.1 8 Este 20 Este 0 -- -- 43
2019-04-16 13:00:00 13.7 7 Este 18 Nordeste 0 -- -- 44
2019-04-16 12:00:00 12.3 6 Sur 22 Sur 0 -- -- 49
2019-04-16 11:00:00 10.5 7 Sudeste 24 Sudoeste 0 -- -- 56
2019-04-16 10:00:00 7.3 9 Sur 21 Sudoeste 0 -- -- 70
2019-04-16 09:00:00 3 4 Norte 10 Noroeste 0 -- -- 98
2019-04-16 08:00:00 2.3 4 Sudoeste 7 Noroeste 0 -- -- 99
2019-04-16 07:00:00 2.4 0 Calma 6 Oeste 0 -- -- 99
2019-04-16 06:00:00 2.4 2 Oeste 4 Sudoeste 0 -- -- 98
2019-04-16 05:00:00 2.7 0 Calma 4 Noroeste 0 -- -- 98
2019-04-16 04:00:00 3.4 2 Oeste 5 Oeste 0 -- -- 97
2019-04-16 03:00:00 4.3 3 Noroeste 5 Noroeste 0 -- -- 98
2019-04-16 02:00:00 4.4 0 Calma 5 Sur 0 -- -- 95
2019-04-16 01:00:00 5.3 2 Oeste 4 Sudoeste 0 -- -- 94
2019-04-16 00:00:00 6 3 Sur 5 Sudoeste 0 -- -- 93
2019-04-15 23:00:00 6.6 3 Sudoeste 22 Noroeste 1 -- -- 90
2019-04-15 22:00:00 7.7 2 Noroeste 12 Sudoeste 0 -- -- 93
2019-04-15 21:00:00 8.2 5 Sudoeste 11 Sudoeste 0 -- -- 92
2019-04-15 20:00:00 9.5 4 Sudoeste 15 Sur 0.2 -- -- 92
2019-04-15 19:00:00 11.6 5 Sur 16 Sudoeste 0 -- -- 81
2019-04-15 18:00:00 14.3 4 Sur 19 Este 0 -- -- 56
2019-04-15 17:00:00 15.2 8 Este 36 Sur 0 -- -- 50
2019-04-15 16:00:00 14.7 9 Este 28 Sur 0 -- -- 61
2019-04-15 15:00:00 12.8 5 Nordeste 35 Norte 0.6 -- -- 73
2019-04-15 14:00:00 11.7 5 Sudeste 26 Noroeste 7.4 -- -- 85
2019-04-15 13:00:00 16.3 8 Este 33 Noroeste 0.2 -- -- 64
2019-04-15 12:00:00 15.7 8 Sudeste 24 Noroeste 0 -- -- 59
2019-04-15 11:00:00 14.6 8 Noroeste 24 Noroeste 0 -- -- 64
2019-04-15 10:00:00 14.4 7 Noroeste 16 Norte 0 -- -- 63
2019-04-15 09:00:00 13.8 5 Noroeste 18 Oeste 0 -- -- 67
2019-04-15 08:00:00 13.8 6 Noroeste 24 Oeste 0.2 -- -- 67
2019-04-15 07:00:00 13.9 5 Sur 26 Noroeste 0 -- -- 65
2019-04-15 06:00:00 14.1 8 Sur 28 Sur 0 -- -- 63
2019-04-15 05:00:00 14.1 4 Sur 27 Norte 0 -- -- 62
2019-04-15 04:00:00 14.3 7 Norte 32 Noroeste 0 -- -- 61
2019-04-15 03:00:00 13.8 4 Este 34 Norte 0 -- -- 64
2019-04-15 02:00:00 14.1 12 Norte 40 Noroeste 0 -- -- 65
2019-04-15 01:00:00 14.1 9 Noroeste 21 Noroeste 0 -- -- 68
2019-04-15 00:00:00 13.9 4 Oeste 18 Noroeste 0 -- -- 69
2019-04-14 23:00:00 14.4 5 Noroeste 21 Noroeste 0 -- -- 67
2019-04-14 22:00:00 13.5 7 Oeste 18 Oeste 0 -- -- 71
2019-04-14 21:00:00 13.3 2 Noroeste 4 Oeste 0 -- -- 86
2019-04-14 20:00:00 14.1 0 Calma 6 Oeste 0 -- -- 86
2019-04-14 19:00:00 16.2 2 Sur 11 Sur 0.2 -- -- 72
2019-04-14 18:00:00 18.9 4 Sudoeste 15 Sur 0 -- -- 54
2019-04-14 17:00:00 20.2 5 Sur 17 Este 0 -- -- 50
2019-04-14 16:00:00 19 4 Sur 11 Este 0 -- -- 52
2019-04-14 15:00:00 18.4 4 Nordeste 22 Este 0 -- -- 50
2019-04-14 14:00:00 18.8 4 Este 17 Noroeste 0 -- -- 48
2019-04-14 13:00:00 17.3 6 Norte 13 Norte 0 -- -- 56
2019-04-14 12:00:00 15.1 2 Nordeste 10 Sur 0 -- -- 58
2019-04-14 11:00:00 14.4 4 Sudeste 10 Este 0 -- -- 56
2019-04-14 10:00:00 11 2 Nordeste 5 Este 0 -- -- 76
2019-04-14 09:00:00 8 0 Calma 6 Este 0 -- -- 86
2019-04-14 08:00:00 7.3 0 Calma 6 Noroeste 0 -- -- 85
2019-04-14 07:00:00 7.5 2 Oeste 4 Oeste 0 -- -- 81
2019-04-14 06:00:00 8.3 2 Sudoeste 6 Oeste 0 -- -- 77
2019-04-14 05:00:00 9 3 Sudeste 6 Noroeste 0 -- -- 76
2019-04-14 04:00:00 8.8 0 Calma 5 Sudoeste 0 -- -- 75
2019-04-14 03:00:00 8.8 0 Calma 4 Sudoeste 0 -- -- 75
2019-04-14 02:00:00 9.3 0 Calma 4 Oeste 0 -- -- 72
2019-04-14 01:00:00 9.6 0 Calma 3 Sudoeste 0 -- -- 68
2019-04-14 00:00:00 10.3 0 Calma 2 Sudoeste 0 -- -- 68
2019-04-13 23:00:00 10.7 0 Calma 2 Sur 0 -- -- 66
2019-04-13 22:00:00 11.3 0 Calma 5 Sudoeste 0 -- -- 61
2019-04-13 21:00:00 12.6 3 Sudoeste 10 Sudoeste 0 -- -- 53
2019-04-13 20:00:00 14.2 4 Sudoeste 10 Sur 0 -- -- 52
2019-04-13 19:00:00 15.7 4 Sudoeste 13 Noroeste 0 -- -- 45
2019-04-13 18:00:00 16.8 5 Noroeste 21 Oeste 0 -- -- 36
2019-04-13 17:00:00 19.1 6 Noroeste 16 Noroeste 0 -- -- 29
2019-04-13 16:00:00 18.2 8 Este 20 Sudoeste 0 -- -- 32
2019-04-13 15:00:00 17.7 6 Este 21 Noroeste 0 -- -- 34
2019-04-13 14:00:00 17 6 Noroeste 19 Noroeste 0 -- -- 33
2019-04-13 13:00:00 16.6 4 Norte 15 Sur 0 -- -- 44
2019-04-13 12:00:00 14.1 7 Oeste 21 Sudoeste 0 -- -- 40
2019-04-13 11:00:00 12.6 3 Norte 19 Sudoeste 0 -- -- 49
2019-04-13 10:00:00 7.4 3 Noroeste 9 Este 0 -- -- 63
2019-04-13 09:00:00 4.7 0 Calma 5 Oeste 0 -- -- 65
2019-04-13 08:00:00 4.3 0 Calma 6 Oeste 0 -- -- 70
2019-04-13 07:00:00 4.3 0 Calma 4 Sudoeste 0 -- -- 67
2019-04-13 06:00:00 4.8 2 Sudoeste 7 Noroeste 0 -- -- 68
2019-04-13 05:00:00 4.8 3 Sudoeste 7 Este 0 -- -- 72
2019-04-13 04:00:00 4.5 0 Calma 5 Oeste -- -- -- 74
2019-04-13 03:00:00 4.3 2 Oeste 6 Oeste 0 -- -- 77
2019-04-13 02:00:00 4.5 3 Oeste 6 Oeste 0 -- -- 81
2019-04-13 01:00:00 4.6 2 Sudoeste 4 Oeste 0 -- -- 84
2019-04-13 00:00:00 4.8 0 Calma 3 Noroeste 0 -- -- 84
2019-04-12 23:00:00 5.4 0 Calma 3 Oeste 0 -- -- 85
2019-04-12 22:00:00 6.3 0 Calma 3 Oeste 0 -- -- 81
2019-04-12 21:00:00 7.8 2 Sur 5 Sudoeste 0 -- -- 73
2019-04-12 20:00:00 10.3 3 Sudoeste 6 Sudoeste 0 -- -- 64
2019-04-12 19:00:00 14 3 Oeste 15 Sudoeste 0 -- -- 47
2019-04-12 18:00:00 15.7 5 Sur 16 Sudeste 0 -- -- 43
2019-04-12 17:00:00 15.7 4 Sudeste 16 Sudoeste 0 -- -- 35
2019-04-12 16:00:00 15.2 4 Sudeste 14 Este 0 -- -- 35
2019-04-12 15:00:00 14.4 5 Sudeste 15 Sur 0 -- -- 31
2019-04-12 14:00:00 13.5 4 Sudeste 13 Sudeste 0 -- -- 33
2019-04-12 13:00:00 12.7 5 Este 13 Sudoeste 0 -- -- 45
2019-04-12 12:00:00 9.8 4 Este 11 Este 0 -- -- 46
2019-04-12 11:00:00 6.6 2 Este 6 Este 0 -- -- 63
2019-04-12 10:00:00 1.4 0 Calma 4 Este 0 -- -- 94
2019-04-12 09:00:00 -0.5 0 Calma 2 Noroeste 0 -- -- 97
2019-04-12 08:00:00 -0.8 0 Calma 4 Oeste 0 -- -- 96
2019-04-12 07:00:00 -0.7 0 Calma 4 Sudoeste 0 -- -- 95
2019-04-12 06:00:00 -0.2 2 Sur 4 Sudoeste 0 -- -- 94
2019-04-12 05:00:00 0.4 2 Oeste 4 Oeste 0 -- -- 92
2019-04-12 04:00:00 1.7 2 Sur 4 Sudoeste 0 -- -- 93
2019-04-12 03:00:00 2.1 0 Calma 4 Oeste 0 -- -- 94
2019-04-12 02:00:00 2.4 2 Sudoeste 4 Sudoeste 0 -- -- 93
2019-04-12 01:00:00 3.7 0 Calma 5 Sur 0 -- -- 93
2019-04-12 00:00:00 4 0 Calma 6 Sur 0 -- -- 91
2019-04-11 23:00:00 4.6 3 Sur 16 Oeste 0 -- -- 87
2019-04-11 22:00:00 5.2 8 Oeste 16 Oeste 0 -- -- 79
2019-04-11 21:00:00 5.6 5 Oeste 19 Oeste 0 -- -- 77
2019-04-11 20:00:00 6.5 2 Sudoeste 16 Oeste 0 -- -- 73
2019-04-11 19:00:00 7.7 4 Sudeste 16 Nordeste 0 -- -- 68
2019-04-11 18:00:00 8.4 9 Oeste 23 Oeste 0 -- -- 68
2019-04-11 17:00:00 9.3 9 Noroeste 18 Norte 0 -- -- 63
2019-04-11 16:00:00 9.4 2 Norte 19 Noroeste 0 -- -- 60
2019-04-11 15:00:00 9.2 7 Noroeste 18 Norte 0 -- -- 60
2019-04-11 14:00:00 9.6 9 Noroeste 16 Noroeste 0 -- -- 56
2019-04-11 13:00:00 8.6 5 Nordeste 13 Este 0 -- -- 61
2019-04-11 12:00:00 7.5 5 Este 18 Sudoeste 0 -- -- 59
2019-04-11 11:00:00 6.5 3 Nordeste 7 Este 0 -- -- 65
2019-04-11 10:00:00 3 4 Sur 8 Sur 0 -- -- 93
2019-04-11 09:00:00 1.1 0 Calma 7 Oeste 0 -- -- 96
2019-04-11 08:00:00 1.1 4 Noroeste 9 Oeste 0 -- -- 97
2019-04-11 07:00:00 1.7 3 Sudoeste 6 Oeste 0.2 -- -- 98
2019-04-11 06:00:00 1.7 0 Calma 6 Oeste 0 -- -- 97
2019-04-11 05:00:00 1.7 4 Sudoeste 6 Sudoeste 0 -- -- 99
2019-04-11 04:00:00 1.4 2 Oeste 6 Sudoeste 0 -- -- 100
2019-04-11 03:00:00 0.9 0 Calma 4 Sudoeste 0 -- -- 97
2019-04-11 02:00:00 1.8 2 Sudoeste 6 Sudoeste 0 -- -- 96
2019-04-11 01:00:00 2.7 0 Calma 5 Noroeste 0.4 -- -- 96
2019-04-11 00:00:00 2.7 2 Oeste 4 Oeste 0 -- -- 97
2019-04-10 23:00:00 3 0 Calma 5 Sudoeste 0 -- -- 96
2019-04-10 22:00:00 3.3 3 Oeste 5 Oeste 0.4 -- -- 94
2019-04-10 21:00:00 4.1 0 Calma 9 Oeste 0 -- -- 90
2019-04-10 20:00:00 4.9 4 Oeste 11 Noroeste 0 -- -- 85
2019-04-10 19:00:00 5.7 6 Noroeste 17 Este 0.2 -- -- 81
2019-04-10 18:00:00 6.4 9 Este 23 Este 0 -- -- 74
2019-04-10 17:00:00 7.2 4 Este 19 Este 0 -- -- 75
2019-04-10 16:00:00 7.3 4 Noroeste 9 Nordeste 2 -- -- 81
2019-04-10 15:00:00 5.6 0 Calma 4 Noroeste 3.6 -- -- 84
2019-04-10 14:00:00 4.1 0 Calma 4 Noroeste 3.4 -- -- 87
2019-04-10 13:00:00 2.7 0 Calma 2 Nordeste 1.2 -- -- 90
2019-04-10 12:00:00 1.6 0 Calma 3 Sudoeste 0.8 -- -- 95
2019-04-10 11:00:00 1.5 0 Calma 2 Noroeste 0.6 -- -- 96
2019-04-10 10:00:00 0.5 0 Calma 2 Nordeste 0 -- -- 99
2019-04-10 09:00:00 0.7 0 Calma 4 Sur 0.8 -- -- 98
2019-04-10 08:00:00 1.5 0 Calma 5 Oeste 0.8 -- -- 100
2019-04-10 07:00:00 1.2 0 Calma 5 Oeste 0 -- -- 100
2019-04-10 06:00:00 1.1 2 Oeste 5 Noroeste 0.4 -- -- 99
2019-04-10 05:00:00 1.2 0 Calma 4 Oeste 0 -- -- 99
2019-04-10 04:00:00 1.1 0 Calma 4 Oeste 0 -- -- 99
2019-04-10 03:00:00 0.9 3 Sudoeste 4 Sudoeste 0 -- -- 98
2019-04-10 02:00:00 1.4 0 Calma 5 Oeste 0.6 -- -- 97
2019-04-10 01:00:00 1.8 0 Calma 8 Sudoeste 2.4 -- -- 96
2019-04-10 00:00:00 2.8 0 Calma 6 Sudoeste 1 -- -- 96
2019-04-09 23:00:00 3.3 0 Calma 6 Sur 0 -- -- 96
2019-04-09 22:00:00 3.8 0 Calma 8 Este 2.6 -- -- 93
2019-04-09 21:00:00 5 0 Calma 5 Sudoeste 0 -- -- 91
2019-04-09 20:00:00 6 4 Sur 11 Este 0.6 -- -- 82
2019-04-09 19:00:00 7 2 Este 15 Sur 0.2 -- -- 75
2019-04-09 18:00:00 8 9 Sur 21 Sur 0 -- -- 60
2019-04-09 17:00:00 8.2 11 Sudoeste 22 Sur 0 -- -- 55
2019-04-09 16:00:00 8.9 5 Norte 25 Noroeste 0 -- -- 52
2019-04-09 15:00:00 8.3 7 Sur 19 Sudoeste 0 -- -- 57
2019-04-09 14:00:00 9.5 5 Sur 17 Oeste 0 -- -- 58
2019-04-09 13:00:00 7.8 3 Este 13 Nordeste 0 -- -- 69
2019-04-09 12:00:00 6 3 Sudeste 13 Nordeste 0.2 -- -- 76
2019-04-09 11:00:00 5.7 3 Noroeste 11 Oeste 0.2 -- -- 78
2019-04-09 10:00:00 5 5 Este 13 Este 0 -- -- 77
2019-04-09 09:00:00 3.2 3 Oeste 6 Noroeste 0.2 -- -- 93
2019-04-09 08:00:00 3.6 3 Oeste 20 Sur 0.4 -- -- 87
2019-04-09 07:00:00 4 5 Sur 14 Sur 0 -- -- 78
2019-04-09 06:00:00 4.7 4 Sudeste 20 Sur 0 -- -- 70
2019-04-09 05:00:00 4 5 Sudeste 16 Sur 0 -- -- 74
2019-04-09 04:00:00 4.7 9 Sur 20 Sudoeste 0 -- -- 69
2019-04-09 03:00:00 4.7 4 Sudeste 12 Sudeste 0 -- -- 67
2019-04-09 02:00:00 4.7 4 Sudoeste 21 Oeste 0 -- -- 69
2019-04-09 01:00:00 3.6 5 Sur 13 Sudoeste 0 -- -- 74
2019-04-09 00:00:00 3.6 3 Sudoeste 8 Sudoeste 0 -- -- 80
2019-04-08 23:00:00 4.5 3 Sur 10 Sudeste 0 -- -- 80
2019-04-08 22:00:00 4.7 3 Oeste 9 Sudoeste 0 -- -- 81
2019-04-08 21:00:00 5.8 3 Sudoeste 21 Sur 0 -- -- 76
2019-04-08 20:00:00 6.8 5 Sudoeste 17 Sudoeste 0.4 -- -- 71
2019-04-08 19:00:00 9.8 4 Este 19 Sur 0 -- -- 48
2019-04-08 18:00:00 10.9 6 Este 32 Oeste 0 -- -- 38
2019-04-08 17:00:00 12.3 9 Sur 20 Sur 0 -- -- 34
2019-04-08 16:00:00 12.2 8 Este 20 Noroeste 0 -- -- 43
2019-04-08 15:00:00 11.9 5 Sudoeste 15 Este 0 -- -- 39
2019-04-08 14:00:00 11.8 8 Este 21 Sudoeste 0 -- -- 47
2019-04-08 13:00:00 10.6 5 Norte 17 Noroeste 0 -- -- 52
2019-04-08 12:00:00 8.6 4 Este 12 Este 0 -- -- 74
2019-04-08 11:00:00 7 3 Sudeste 7 Sudoeste 0 -- -- 81
2019-04-08 10:00:00 5.5 0 Calma 5 Oeste 0 -- -- 88
2019-04-08 09:00:00 3.3 2 Noroeste 5 Oeste 0 -- -- 96
2019-04-08 08:00:00 3 2 Oeste 5 Oeste 0 -- -- 93
2019-04-08 07:00:00 3.1 3 Sur 7 Oeste 0 -- -- 93
2019-04-08 06:00:00 4.9 3 Oeste 24 Sur 0 -- -- 87
2019-04-08 05:00:00 5.7 10 Sur 24 Sur 0 -- -- 83
2019-04-08 04:00:00 3.4 3 Oeste 6 Oeste -- -- -- 97
2019-04-08 03:00:00 3.4 4 Oeste 22 Oeste 1.2 -- -- 96
2019-04-08 02:00:00 3.8 5 Sudoeste 19 Sur 2 -- -- 92
2019-04-08 01:00:00 4.5 12 Sur 35 Sudoeste 1.8 -- -- 84
2019-04-08 00:00:00 3.9 6 Sur 24 Sur 0.4 -- -- 87
2019-04-07 23:00:00 4.5 7 Sudeste 24 Este 0.2 -- -- 82
2019-04-07 22:00:00 3.8 6 Oeste 14 Oeste 1 -- -- 87
2019-04-07 21:00:00 4.2 4 Norte 16 Este 1.8 -- -- 88
2019-04-07 20:00:00 6 4 Noroeste 21 Sudoeste 0.2 -- -- 73
2019-04-07 19:00:00 7.2 8 Sudeste 24 Sur 0 -- -- 53
2019-04-07 18:00:00 9.1 6 Nordeste 27 Oeste 0 -- -- 39
2019-04-07 17:00:00 10.2 7 Este 18 Noroeste 0 -- -- 37
2019-04-07 16:00:00 11.4 5 Norte 14 Sur 0 -- -- 42
2019-04-07 15:00:00 9.4 5 Nordeste 15 Norte 0 -- -- 52
2019-04-07 14:00:00 9.4 6 Sur 19 Sur 1.2 -- -- 49
2019-04-07 13:00:00 8.5 7 Sur 19 Sur 6.2 -- -- 49
2019-04-07 12:00:00 5.8 8 Oeste 30 Sudoeste 3 -- -- 62
2019-04-07 11:00:00 5 2 Norte 21 Oeste 2.2 -- -- 78
2019-04-07 10:00:00 2.5 12 Oeste 30 Noroeste 0.6 -- -- 78
2019-04-07 09:00:00 0.8 6 Sur 14 Sudoeste 0.2 -- -- 93
2019-04-07 08:00:00 0.2 3 Oeste 11 Sur 0 -- -- 98
2019-04-07 07:00:00 0.3 2 Norte 8 Noroeste 0.2 -- -- 97
2019-04-07 06:00:00 0.5 3 Oeste 10 Oeste 0 -- -- 95
2019-04-07 05:00:00 0.7 6 Sur 19 Nordeste 0 -- -- 92
2019-04-07 04:00:00 0.7 6 Este 21 Este 0 -- -- 93
2019-04-07 03:00:00 0.1 2 Este 11 Norte 0 -- -- 98
2019-04-07 02:00:00 0 2 Noroeste 7 Sudoeste 0.2 -- -- 99
2019-04-07 01:00:00 0.1 0 Calma 4 Noroeste 0 -- -- 99
2019-04-07 00:00:00 0.1 2 Noroeste 4 Noroeste 0.2 -- -- 99
2019-04-06 23:00:00 0.2 0 Calma 6 Sudoeste 0 -- -- 99
2019-04-06 22:00:00 0.2 0 Calma 8 Noroeste 0.2 -- -- 98
2019-04-06 21:00:00 0.3 0 Calma 4 Este 0.4 -- -- 97
2019-04-06 20:00:00 1 0 Calma 4 Oeste 0.4 -- -- 94
2019-04-06 19:00:00 1.1 0 Calma 16 Sur 0.2 -- -- 94
2019-04-06 18:00:00 3.8 6 Sudeste 24 Sur 0.4 -- -- 79
2019-04-06 17:00:00 7.2 4 Noroeste 21 Sudoeste 0 -- -- 57
2019-04-06 16:00:00 7.1 4 Sudoeste 17 Sudoeste 0 -- -- 54
2019-04-06 15:00:00 6.4 4 Este 13 Sur 0 -- -- 56
2019-04-06 14:00:00 5.5 5 Este 21 Este 0 -- -- 60
2019-04-06 13:00:00 4.7 6 Sudeste 22 Sudeste 0 -- -- 62
2019-04-06 12:00:00 4.7 6 Sudeste 17 Sur 0 -- -- 61
2019-04-06 11:00:00 3.9 5 Sudeste 21 Sur 0 -- -- 64
2019-04-06 10:00:00 2.7 2 Sudeste 12 Este 0 -- -- 71
2019-04-06 09:00:00 2 4 Sudeste 14 Este 0 -- -- 73
2019-04-06 08:00:00 2.4 6 Nordeste 16 Nordeste 0 -- -- 68
2019-04-06 07:00:00 2.3 6 Sudeste 23 Sudoeste 0 -- -- 65
2019-04-06 06:00:00 1.9 6 Sur 33 Sur 0 -- -- 66
2019-04-06 05:00:00 1.4 8 Sur 22 Sur 0 -- -- 70
2019-04-06 04:00:00 1.4 8 Sur 16 Sur 0 -- -- 74
2019-04-06 03:00:00 -0.1 2 Norte 7 Noroeste 0 -- -- 85
2019-04-06 02:00:00 0.2 2 Oeste 9 Sur 0 -- -- 84
2019-04-06 01:00:00 0.6 0 Calma 6 Noroeste 0 -- -- 84
2019-04-06 00:00:00 1.2 0 Calma 5 Sur 0 -- -- 82
2019-04-05 23:00:00 2.2 0 Calma 6 Sur 0 -- -- 77
2019-04-05 22:00:00 2.9 2 Sur 5 Sudoeste 0 -- -- 70
2019-04-05 21:00:00 4.2 4 Sur 14 Sur 0 -- -- 52
2019-04-05 20:00:00 4.5 3 Sur 13 Sur 0 -- -- 60
2019-04-05 19:00:00 6.3 3 Sudeste 19 Nordeste 0 -- -- 45
2019-04-05 18:00:00 7.2 7 Sur 25 Sudoeste 0 -- -- 38
2019-04-05 17:00:00 6.8 9 Sudoeste 26 Sudeste 0 -- -- 40
2019-04-05 16:00:00 7.3 6 Este 22 Este 0 -- -- 47
2019-04-05 15:00:00 7.9 9 Noroeste 28 Sur 0 -- -- 43
2019-04-05 14:00:00 5.4 9 Sur 26 Este 0 -- -- 56
2019-04-05 13:00:00 8.3 6 Este 22 Noroeste 0 -- -- 46
2019-04-05 12:00:00 6.3 7 Oeste 19 Sudoeste 0 -- -- 53
2019-04-05 11:00:00 4.4 4 Norte 18 Noroeste 0 -- -- 65
2019-04-05 10:00:00 2.7 5 Norte 16 Noroeste 0 -- -- 79
2019-04-05 09:00:00 1.6 2 Sudeste 8 Sur 0 -- -- 91
2019-04-05 08:00:00 2.2 4 Este 17 Norte 0 -- -- 83
2019-04-05 07:00:00 2.1 4 Este 9 Nordeste 0 -- -- 81
2019-04-05 06:00:00 2.1 3 Sudoeste 15 Sudoeste 0 -- -- 82
2019-04-05 05:00:00 2.7 5 Sudeste 15 Sudoeste 0.2 -- -- 76
2019-04-05 04:00:00 2.3 6 Noroeste 19 Norte 0.2 -- -- 79
2019-04-05 03:00:00 2.6 6 Este 23 Noroeste 0 -- -- 80
2019-04-05 02:00:00 3 6 Norte 22 Sudoeste 0 -- -- 73
2019-04-05 01:00:00 3 4 Sur 20 Noroeste 0.2 -- -- 74
2019-04-05 00:00:00 2 4 Este 16 Este 0 -- -- 84
2019-04-04 23:00:00 2.5 5 Norte 27 Sur 0.2 -- -- 79
2019-04-04 22:00:00 2.3 6 Nordeste 19 Oeste 0 -- -- 80
2019-04-04 21:00:00 2.3 5 Sudeste 17 Oeste 0.4 -- -- 85
2019-04-04 20:00:00 3.2 2 Nordeste 18 Este 0 -- -- 73
2019-04-04 19:00:00 4 5 Norte 42 Noroeste 0 -- -- 62
2019-04-04 18:00:00 4.7 6 Nordeste 31 Sur 0 -- -- 57
2019-04-04 17:00:00 5.7 5 Este 25 Sudoeste 0 -- -- 55
2019-04-04 16:00:00 5.8 8 Este 23 Noroeste -- -- -- 55
2019-04-04 15:00:00 6.4 7 Este 30 Sur -- -- -- 51
2019-04-04 14:00:00 7.1 6 Este 24 Sur -- -- -- 47
2019-04-04 13:00:00 6.1 8 Sudeste 28 Este -- -- -- 51
2019-04-04 12:00:00 4 7 Sudoeste 18 Sur -- -- -- 55
2019-04-04 11:00:00 2.3 5 Oeste 13 Noroeste -- -- -- 66
2019-04-04 10:00:00 -1.9 0 Calma 6 Noroeste 0 -- -- 82
2019-04-04 09:00:00 -2.9 3 Noroeste 12 Este 0 -- -- 84
2019-04-04 08:00:00 -1.3 6 Sudeste 30 Noroeste 0 -- -- 76
2019-04-04 07:00:00 -0.8 11 Norte 36 Norte 0 -- -- 73
2019-04-04 06:00:00 -1.3 9 Noroeste 30 Noroeste 0 -- -- 81
2019-04-04 05:00:00 -1.8 0 Calma 18 Noroeste 0 -- -- 90
2019-04-04 04:00:00 -2.2 0 Calma 5 Norte 0 -- -- 96
2019-04-04 03:00:00 -2.3 0 Calma 8 Norte 0 -- -- 95
2019-04-04 02:00:00 -2.4 0 Calma -- -- 0 -- -- 93
2019-04-04 01:00:00 -2 0 Calma -- -- 0 -- -- 97
2019-04-04 00:00:00 -1.9 0 Calma 3 Norte 0 -- -- 97
2019-04-03 23:00:00 -1.8 0 Calma 5 Norte 0 -- -- 97
2019-04-03 22:00:00 -1.8 0 Calma 4 Norte 0 -- -- 96
2019-04-03 21:00:00 -1.6 0 Calma 4 Norte 0 -- -- 95
2019-04-03 20:00:00 -1.1 0 Calma 4 Norte 0.2 -- -- 93
2019-04-03 19:00:00 -0.1 0 Calma 6 Noroeste 0.6 -- -- 89
2019-04-03 18:00:00 -0.5 3 Sur 6 Sudeste 0 -- -- 93
2019-04-03 17:00:00 -0.7 3 Nordeste 18 Noroeste 0.4 -- -- 91
2019-04-03 16:00:00 0.5 5 Noroeste 10 Noroeste 0.8 -- -- 86
2019-04-03 15:00:00 0.6 5 Norte 17 Norte 1 -- -- 81
2019-04-03 14:00:00 0.1 2 Nordeste 12 Sudeste 1 -- -- 91
2019-04-03 13:00:00 1.4 3 Sudoeste 8 Noroeste 0.8 -- -- 90
2019-04-03 12:00:00 0.9 2 Noroeste 8 Oeste 0.6 -- -- 91
2019-04-03 11:00:00 0.3 3 Noroeste 10 Oeste 0.4 -- -- 92
2019-04-03 10:00:00 0.4 4 Noroeste 12 Sur 0 -- -- 93
2019-04-03 09:00:00 0.6 3 Noroeste 4 Este 0 -- -- 96
2019-04-03 08:00:00 0.8 0 Calma 5 Norte 0 -- -- 94
2019-04-03 07:00:00 1.6 4 Oeste 14 Sudoeste 0 -- -- 87
2019-04-03 06:00:00 3.4 5 Oeste 35 Noroeste 0 -- -- 63
2019-04-03 05:00:00 2.7 7 Este 19 Sudoeste 0 -- -- 71
2019-04-03 04:00:00 3.1 2 Norte 10 Nordeste 0 -- -- 78
2019-04-03 03:00:00 3.4 3 Noroeste 16 Sur 0 -- -- 79
2019-04-03 02:00:00 4 12 Sur 28 Sur 0 -- -- 75
2019-04-03 01:00:00 4 3 Este 9 Este 0 -- -- 81
2019-04-03 00:00:00 4.7 0 Calma 20 Este 0 -- -- 78
2019-04-02 23:00:00 5.1 7 Este 21 Este 0 -- -- 77
2019-04-02 22:00:00 5.6 3 Nordeste 12 Este 0 -- -- 77
2019-04-02 21:00:00 6.3 3 Noroeste 16 Sudoeste 0 -- -- 80
2019-04-02 20:00:00 6.4 4 Sur 12 Sudoeste 0 -- -- 85
2019-04-02 19:00:00 7.5 3 Oeste 14 Sur 0 -- -- 80
2019-04-02 18:00:00 8.7 6 Sudeste 22 Este 0 -- -- 71
2019-04-02 17:00:00 10.5 7 Este 17 Nordeste 0 -- -- 62
2019-04-02 16:00:00 13 6 Sudeste 22 Sur 0 -- -- 56
2019-04-02 15:00:00 14 7 Sur 19 Sur 0 -- -- 52
2019-04-02 14:00:00 13.4 5 Sudoeste 18 Sudoeste 0 -- -- 49
2019-04-02 13:00:00 12.9 5 Sudeste 14 Sudeste 0 -- -- 51
2019-04-02 12:00:00 9.9 5 Sudeste 13 Sudeste 0 -- -- 61
2019-04-02 11:00:00 7.9 5 Nordeste 12 Este 0 -- -- 63
2019-04-02 10:00:00 3.4 0 Calma 2 Norte 0 -- -- 73
2019-04-02 09:00:00 2.1 2 Noroeste 4 Oeste 0 -- -- 73
2019-04-02 08:00:00 2 0 Calma 5 Oeste 0 -- -- 72
2019-04-02 07:00:00 2.1 0 Calma 4 Oeste 0 -- -- 76
2019-04-02 06:00:00 2.3 0 Calma 4 Oeste 0 -- -- 78
2019-04-02 05:00:00 2.6 0 Calma 4 Oeste 0 -- -- 79
2019-04-02 04:00:00 2.8 0 Calma 4 Oeste 0 -- -- 80
2019-04-02 03:00:00 3.1 0 Calma 3 Oeste 0 -- -- 84
2019-04-02 02:00:00 3.6 0 Calma 4 Oeste 0 -- -- 83
2019-04-02 01:00:00 4.2 0 Calma 4 Sudoeste 0 -- -- 84
2019-04-02 00:00:00 5 0 Calma 2 Noroeste 0 -- -- 83
2019-04-01 23:00:00 5.1 0 Calma 4 Sudoeste 0 -- -- 80
2019-04-01 22:00:00 6.2 2 Sudoeste 4 Sudoeste 0 -- -- 74
2019-04-01 21:00:00 8 3 Sudoeste 8 Sur 0 -- -- 68
2019-04-01 20:00:00 9.7 3 Este 22 Este 0 -- -- 62
2019-04-01 19:00:00 11.2 6 Este 23 Este 0 -- -- 55
2019-04-01 18:00:00 12.6 12 Este 22 Este 0 -- -- 49
2019-04-01 17:00:00 14 4 Nordeste 18 Este 0 -- -- 44
2019-04-01 16:00:00 13 6 Norte 22 Sudoeste 0 -- -- 45
2019-04-01 15:00:00 14.7 6 Sur 17 Sur 0 -- -- 42
2019-04-01 14:00:00 13.3 5 Sudeste 21 Sur 0 -- -- 43
2019-04-01 13:00:00 11.4 4 Este 17 Nordeste 0 -- -- 48
2019-04-01 12:00:00 10.8 4 Este 13 Sur 0 -- -- 45
2019-04-01 11:00:00 8 5 Este 10 Este 0 -- -- 54
2019-04-01 10:00:00 3.5 0 Calma 3 Noroeste 0 -- -- 72
2019-04-01 09:00:00 2.1 0 Calma 3 Oeste 0 -- -- 69
2019-04-01 08:00:00 2.1 2 Oeste 4 Oeste 0 -- -- 68
2019-04-01 07:00:00 2.4 0 Calma 3 Sudoeste 0 -- -- 66
2019-04-01 06:00:00 2.7 2 Oeste 5 Noroeste 0 -- -- 65
2019-04-01 05:00:00 2.9 0 Calma 4 Oeste 0 -- -- 67
2019-04-01 04:00:00 3.2 0 Calma 4 Oeste 0 -- -- 66
2019-04-01 03:00:00 3.5 0 Calma 3 Oeste 0 -- -- 66
2019-04-01 02:00:00 3.8 0 Calma 5 Oeste 0 -- -- 64
2019-04-01 01:00:00 4.3 2 Oeste 4 Oeste 0 -- -- 66
2019-04-01 00:00:00 4.9 0 Calma 4 Oeste 0 -- -- 63
2019-03-31 23:00:00 5.9 0 Calma 6 Oeste 0 -- -- 62
2019-03-31 22:00:00 7.3 0 Calma 5 Sudoeste 0 -- -- 59
2019-03-31 21:00:00 9 2 Sudoeste 9 Sur 0 -- -- 58
2019-03-31 20:00:00 11.2 3 Sur 22 Este 0 -- -- 52
2019-03-31 19:00:00 13.1 5 Sudoeste 20 Oeste 0 -- -- 47
2019-03-31 18:00:00 14.4 6 Sur 28 Sudoeste 0 -- -- 40
2019-03-31 17:00:00 15.7 8 Sudoeste 33 Sudoeste 0 -- -- 32
2019-03-31 16:00:00 16.4 8 Sur 23 Sur 0 -- -- 30
2019-03-31 15:00:00 15.7 5 Sudoeste 24 Oeste 0 -- -- 35
2019-03-31 14:00:00 15.8 6 Sur 19 Sudoeste 0 -- -- 32
2019-03-31 13:00:00 15.5 6 Sur 17 Sur 0 -- -- 32
2019-03-31 12:00:00 13.2 6 Sudoeste 19 Sur 0 -- -- 41
2019-03-31 11:00:00 10.4 3 Este 6 Nordeste 0 -- -- 45
2019-03-31 10:00:00 5.8 0 Calma 2 Noroeste 0 -- -- 71
2019-03-31 09:00:00 4.3 0 Calma 3 Noroeste 0 -- -- 71
2019-03-31 08:00:00 4.2 2 Oeste 4 Oeste 0 -- -- 72
2019-03-31 07:00:00 4.6 0 Calma 4 Oeste 0 -- -- 70
2019-03-31 06:00:00 5.1 2 Sudoeste 4 Sudoeste 0 -- -- 70
2019-03-31 05:00:00 5.6 0 Calma 4 Noroeste 0 -- -- 70
2019-03-31 03:00:00 5.5 0 Calma 4 Oeste 0 -- -- 78
2019-03-31 01:00:00 6.4 0 Calma 4 Oeste 0 -- -- 77
2019-03-31 00:00:00 7.4 0 Calma 5 Sur 0 -- -- 81
2019-03-30 23:00:00 7.6 3 Sudoeste 6 Oeste 0 -- -- 80
2019-03-30 22:00:00 7.8 2 Sur 6 Oeste 0 -- -- 85
2019-03-30 21:00:00 8.5 0 Calma 6 Este 0 -- -- 69
2019-03-30 20:00:00 9.3 4 Sudoeste 21 Este 0 -- -- 64
2019-03-30 19:00:00 10.6 7 Nordeste 26 Este 0 -- -- 57
2019-03-30 18:00:00 12.5 0 Calma 12 Noroeste 0 -- -- 47
2019-03-30 17:00:00 11.6 9 Noroeste 32 Noroeste 0 -- -- 49
2019-03-30 16:00:00 12.2 8 Sudoeste 19 Oeste 0 -- -- 49
2019-03-30 15:00:00 13.6 0 Calma 17 Este 0 -- -- 40
2019-03-30 14:00:00 14.6 4 Este 17 Nordeste 0 -- -- 31
2019-03-30 13:00:00 16.8 6 Este 21 Este 0 -- -- 29
2019-03-30 12:00:00 15.4 6 Este 15 Este 0 -- -- 32
2019-03-30 11:00:00 13.9 5 Este 14 Nordeste 0 -- -- 34
2019-03-30 10:00:00 10.8 4 Nordeste 9 Nordeste 0 -- -- 42
2019-03-30 09:00:00 6.6 0 Calma 4 Este 0 -- -- 60
2019-03-30 08:00:00 5.7 2 Norte 8 Norte 0 -- -- 59
2019-03-30 07:00:00 6.6 2 Sudeste 14 Sudoeste 0 -- -- 51
2019-03-30 06:00:00 9 6 Oeste 23 Sudoeste 0 -- -- 39
2019-03-30 05:00:00 9.5 7 Sur 25 Sur 0 -- -- 36
2019-03-30 04:00:00 9.3 4 Noroeste 27 Oeste 0 -- -- 41
2019-03-30 03:00:00 10.1 9 Noroeste 24 Oeste 0 -- -- 37
2019-03-30 02:00:00 8.3 4 Noroeste 14 Sudoeste 0 -- -- 47
2019-03-30 01:00:00 9 3 Noroeste 15 Norte 0 -- -- 44
2019-03-30 00:00:00 9.6 4 Noroeste 17 Norte 0 -- -- 42
2019-03-29 23:00:00 7.7 2 Sudoeste 6 Oeste 0 -- -- 49
2019-03-29 22:00:00 7.2 0 Calma 4 Oeste 0 -- -- 58
2019-03-29 21:00:00 7.8 0 Calma 5 Sudoeste 0 -- -- 61
2019-03-29 20:00:00 9.5 2 Sudoeste 8 Sudoeste 0 -- -- 54
2019-03-29 19:00:00 12.5 3 Oeste 12 Oeste 0 -- -- 46
2019-03-29 18:00:00 15.6 3 Oeste 12 Este 0 -- -- 26
2019-03-29 17:00:00 17.8 4 Este 15 Sudoeste 0 -- -- 22
2019-03-29 16:00:00 18 6 Este 20 Nordeste 0 -- -- 23
2019-03-29 15:00:00 17.8 6 Nordeste 17 Sur 0 -- -- 26
2019-03-29 14:00:00 17.9 5 Nordeste 15 Este 0 -- -- 30
2019-03-29 13:00:00 16.8 6 Este 14 Sur 0 -- -- 31
2019-03-29 12:00:00 15.7 6 Sudoeste 14 Sur 0 -- -- 32
2019-03-29 11:00:00 12.4 5 Sur 13 Este 0 -- -- 39
2019-03-29 10:00:00 9.4 4 Nordeste 9 Nordeste 0 -- -- 46
2019-03-29 09:00:00 4.9 0 Calma 4 Este 0 -- -- 57
2019-03-29 08:00:00 3.7 0 Calma 4 Oeste 0 -- -- 60
2019-03-29 07:00:00 3.7 2 Oeste 5 Oeste 0 -- -- 60
2019-03-29 06:00:00 3.6 2 Noroeste 4 Oeste 0 -- -- 59
2019-03-29 05:00:00 3.3 0 Calma 4 Oeste 0 -- -- 62
2019-03-29 04:00:00 3.4 0 Calma 4 Oeste 0 -- -- 61
2019-03-29 03:00:00 3.5 0 Calma 5 Noroeste 0 -- -- 62
2019-03-29 02:00:00 3.6 0 Calma 4 Sur 0 -- -- 61
2019-03-29 01:00:00 4.1 0 Calma 3 Oeste 0 -- -- 61
2019-03-29 00:00:00 4 0 Calma 4 Oeste 0 -- -- 64
2019-03-28 23:00:00 4.5 0 Calma 5 Sudoeste 0 -- -- 67
2019-03-28 22:00:00 5.1 0 Calma 4 Sudoeste 0 -- -- 66
2019-03-28 21:00:00 5.9 2 Oeste 4 Sudoeste 0 -- -- 63
2019-03-28 20:00:00 7.6 2 Sudoeste 6 Sudoeste 0 -- -- 56
2019-03-28 19:00:00 10.2 3 Oeste 12 Sudoeste 0 -- -- 48
2019-03-28 18:00:00 12.8 5 Sur 23 Sudoeste 0 -- -- 40
2019-03-28 17:00:00 15.9 6 Sudoeste 22 Sur 0 -- -- 34
2019-03-28 16:00:00 16.2 9 Sur 23 Sur 0 -- -- 29
2019-03-28 15:00:00 15.6 10 Sudoeste 26 Sudoeste 0 -- -- 27
2019-03-28 14:00:00 15.7 7 Sur 21 Sur 0 -- -- 26
2019-03-28 13:00:00 15.2 6 Sur 13 Sudoeste 0 -- -- 24
2019-03-28 12:00:00 13.6 4 Sur 13 Sudoeste 0 -- -- 24
2019-03-28 11:00:00 11.1 4 Sur 13 Sudoeste 0 -- -- 24
2019-03-28 10:00:00 8.9 4 Este 9 Nordeste 0 -- -- 30
2019-03-28 09:00:00 3.8 0 Calma 5 Noroeste 0 -- -- 45
2019-03-28 08:00:00 2.3 0 Calma 6 Oeste 0 -- -- 40
2019-03-28 07:00:00 1.5 0 Calma 8 Noroeste 0 -- -- 44
2019-03-28 06:00:00 1.7 0 Calma 6 Oeste 0 -- -- 45
2019-03-28 05:00:00 1.4 2 Oeste 5 Este 0 -- -- 45
2019-03-28 04:00:00 0.9 0 Calma 4 Sur 0 -- -- 40
2019-03-28 03:00:00 1.9 3 Sudoeste 6 Noroeste 0 -- -- 39
2019-03-28 02:00:00 2.1 0 Calma 5 Oeste 0 -- -- 39
2019-03-28 01:00:00 2.2 0 Calma 5 Oeste 0 -- -- 45
2019-03-28 00:00:00 2.4 0 Calma 6 Noroeste 0 -- -- 49
2019-03-27 23:00:00 2.8 2 Oeste 5 Noroeste 0 -- -- 50
2019-03-27 22:00:00 3.5 0 Calma 5 Oeste 0 -- -- 48
2019-03-27 21:00:00 4.6 2 Oeste 5 Oeste 0 -- -- 48
2019-03-27 20:00:00 6.3 0 Calma 10 Oeste 0 -- -- 39
2019-03-27 19:00:00 8.9 4 Sudoeste 14 Sudoeste 0 -- -- 31
2019-03-27 18:00:00 11.2 6 Sudoeste 17 Sur 0 -- -- 29
2019-03-27 17:00:00 14.2 5 Sudeste 18 Este 0 -- -- 28
2019-03-27 16:00:00 15.3 6 Sudeste 20 Sudoeste 0 -- -- 24
2019-03-27 15:00:00 15.2 7 Sur 24 Sudoeste 0 -- -- 26
2019-03-27 14:00:00 14.7 7 Sur 20 Sur 0 -- -- 23
2019-03-27 13:00:00 14.5 6 Este 18 Sur 0 -- -- 21
2019-03-27 12:00:00 13.5 4 Este 16 Este 0 -- -- 17
2019-03-27 11:00:00 10.9 5 Este 12 Este 0 -- -- 15
2019-03-27 10:00:00 8.1 3 Nordeste 8 Este 0 -- -- 16
2019-03-27 09:00:00 2.6 0 Calma 4 Noroeste 0 -- -- 25
2019-03-27 08:00:00 1.1 0 Calma 5 Oeste 0 -- -- 34
2019-03-27 07:00:00 0.9 2 Oeste 6 Oeste 0 -- -- 39
2019-03-27 06:00:00 1.2 0 Calma 7 Sudoeste 0 -- -- 40
2019-03-27 05:00:00 1 2 Sudoeste 7 Oeste 0 -- -- 41
2019-03-27 04:00:00 0.7 2 Noroeste 8 Sudoeste 0 -- -- 46
2019-03-27 03:00:00 0.5 0 Calma 5 Sudoeste 0 -- -- 43
2019-03-27 02:00:00 0.4 0 Calma 6 Oeste 0 -- -- 47
2019-03-27 01:00:00 0.8 0 Calma 5 Noroeste 0 -- -- 45
2019-03-27 00:00:00 1.7 3 Sudoeste 5 Sudoeste 0 -- -- 47
2019-03-26 23:00:00 2.1 0 Calma 6 Noroeste 0 -- -- 40
2019-03-26 22:00:00 2.1 2 Oeste 6 Oeste 0 -- -- 53
2019-03-26 21:00:00 3.5 2 Sudoeste 5 Sur 0 -- -- 54
2019-03-26 20:00:00 5.3 3 Sur 9 Oeste 0 -- -- 51
2019-03-26 19:00:00 7.7 4 Sur 19 Sur 0 -- -- 39
2019-03-26 18:00:00 10.1 4 Sur 18 Sudeste 0 -- -- 37
2019-03-26 17:00:00 13.2 9 Sur 28 Sur 0 -- -- 29
2019-03-26 16:00:00 13.8 8 Sur 26 Sudoeste 0 -- -- 24
2019-03-26 15:00:00 14.1 6 Sur 19 Sur 0 -- -- 22
2019-03-26 14:00:00 13.2 7 Sur 20 Sur 0 -- -- 22
2019-03-26 13:00:00 12.7 6 Sur 19 Sur 0 -- -- 24
2019-03-26 12:00:00 11.6 6 Sur 19 Sudoeste 0 -- -- 17
2019-03-26 11:00:00 8 7 Sur 18 Sur 0 -- -- 29
2019-03-26 10:00:00 3.9 4 Nordeste 10 Este 0 -- -- 73
2019-03-26 09:00:00 0.2 2 Nordeste 5 Este 0 -- -- 93
2019-03-26 08:00:00 -0.3 0 Calma 4 Noroeste 0 -- -- 93
2019-03-26 07:00:00 0.1 0 Calma 4 Sudoeste 0 -- -- 90
2019-03-26 06:00:00 -0.2 0 Calma 5 Oeste 0 -- -- 90
2019-03-26 05:00:00 0.5 0 Calma 5 Sudoeste 0 -- -- 89
2019-03-26 04:00:00 1.8 2 Norte 7 Sur 0 -- -- 84
2019-03-26 03:00:00 2.1 0 Calma 9 Noroeste 0 -- -- 82
2019-03-26 02:00:00 1.8 4 Noroeste 9 Sudoeste 0 -- -- 81
2019-03-26 01:00:00 1.8 4 Sur 12 Sur 0 -- -- 87
2019-03-26 00:00:00 1.8 3 Sudeste 8 Sudoeste 0 -- -- 87
2019-03-25 23:00:00 0.9 0 Calma 4 Oeste 0 -- -- 77
2019-03-25 22:00:00 2.2 0 Calma 5 Oeste 0 -- -- 67
2019-03-25 21:00:00 4.1 4 Oeste 15 Sudoeste 0 -- -- 53
2019-03-25 20:00:00 5.9 5 Sur 27 Sudeste 0 -- -- 45
2019-03-25 19:00:00 6.8 7 Sur 19 Sur 0 -- -- 37
2019-03-25 18:00:00 8.2 4 Noroeste 17 Sur 0 -- -- 51
2019-03-25 17:00:00 10.5 6 Sudoeste 20 Oeste 0 -- -- 50
2019-03-25 16:00:00 10.7 8 Oeste 28 Sudoeste 0 -- -- 53
2019-03-25 15:00:00 11.5 7 Sudeste 19 Sur 0 -- -- 51
2019-03-25 14:00:00 11.1 6 Este 19 Sudoeste 0 -- -- 54
2019-03-25 13:00:00 10.9 7 Sudeste 19 Sur 0 -- -- 57
2019-03-25 12:00:00 7.5 6 Sudoeste 14 Sudoeste 0 -- -- 70
2019-03-25 11:00:00 6 5 Sudoeste 12 Sur 0 -- -- 74
2019-03-25 10:00:00 5.4 3 Sudeste 10 Sudoeste 0 -- -- 80
2019-03-25 09:00:00 4 2 Noroeste 4 Oeste 0 -- -- 85
2019-03-25 08:00:00 2.6 0 Calma 4 Oeste 0 -- -- 91
2019-03-25 07:00:00 1.4 0 Calma 5 Oeste 0 -- -- 93
2019-03-25 06:00:00 1 3 Oeste 6 Oeste 0 -- -- 91
2019-03-25 05:00:00 1.1 0 Calma 3 Sur 0 -- -- 88
2019-03-25 04:00:00 2 0 Calma 4 Sur 0 -- -- 83
2019-03-25 03:00:00 2.6 0 Calma 3 Oeste 0 -- -- 81
2019-03-25 02:00:00 2.9 2 Oeste 5 Oeste 0 -- -- 82
2019-03-25 01:00:00 3.3 0 Calma 3 Sudoeste 0 -- -- 80
2019-03-25 00:00:00 3.9 0 Calma 4 Sur 0 -- -- 77